Time;durP1;ratioP1;P1;durP2;ratioP2;P2;SDS_P1;SDS_P2;PMS_P1;PMS_P2;Temp;Humidity;BMP_temperature;BMP_pressure;BME280_temperature;BME280_humidity;BME280_pressure;Samples;Min_cycle;Max_cycle;Signal;HPM_P1;HPM_P2
2021/03/16 00:02:37;;;;;;;31.63;5.77;;;;;;;;;;5031929;28;20053;-71
2021/03/16 00:05:06;;;;;;;22.83;5.10;;;10.30;60.70;;;;;;5032079;28;20280;-70
2021/03/16 00:07:33;;;;;;;17.55;4.63;;;;;;;;;;5034516;28;20091;-71
2021/03/16 00:10:00;;;;;;;20.50;4.70;;;;;;;;;;5051407;28;20128;-71
2021/03/16 00:12:27;;;;;;;28.95;5.90;;;;;;;;;;5041322;28;20060;-69
2021/03/16 00:14:54;;;;;;;27.17;4.82;;;;;;;;;;5049454;28;20090;-70
2021/03/16 00:17:21;;;;;;;25.90;4.88;;;;;;;;;;5034008;28;20049;-71
2021/03/16 00:19:49;;;;;;;18.90;4.35;;;;;;;;;;5050773;28;20045;-71
2021/03/16 00:22:16;;;;;;;22.77;4.55;;;;;;;;;;5051900;28;20554;-69
2021/03/16 00:24:42;;;;;;;;;;;10.20;57.50;;;;;;5034088;28;20049;-71
2021/03/16 00:27:09;;;;;;;14.13;4.57;;;;;;;;;;5051499;28;19979;-69
2021/03/16 00:29:36;;;;;;;;;;;10.20;58.00;;;;;;5051947;28;20115;-69
2021/03/16 00:32:02;;;;;;;;;;;10.50;58.10;;;;;;5052258;28;19972;-71
2021/03/16 00:34:29;;;;;;;21.45;4.63;;;;;;;;;;5051449;28;19924;-70
2021/03/16 00:36:56;;;;;;;;;;;10.90;56.00;;;;;;5051759;28;20080;-71
2021/03/16 00:39:22;;;;;;;;;;;10.80;56.20;;;;;;5051543;28;19956;-70
2021/03/16 00:41:49;;;;;;;12.27;4.07;;;;;;;;;;5050264;28;19920;-71
2021/03/16 00:44:16;;;;;;;;;;;10.70;56.50;;;;;;5050844;28;20083;-70
2021/03/16 00:46:42;;;;;;;;;;;10.80;57.60;;;;;;5052226;28;19986;-71
2021/03/16 00:49:10;;;;;;;22.20;4.63;;;;;;;;;;5030885;28;19920;-70
2021/03/16 00:51:37;;;;;;;17.73;4.53;;;;;;;;;;5031565;28;20055;-70
2021/03/16 00:54:04;;;;;;;19.58;4.65;;;;;;;;;;5013486;28;20042;-70
2021/03/16 00:56:32;;;;;;;16.27;4.72;;;;;;;;;;5013871;28;20081;-70
2021/03/16 00:58:59;;;;;;;;;;;10.80;58.20;;;;;;5030459;28;20438;-71
2021/03/16 01:01:25;;;;;;;;;;;11.00;58.70;;;;;;5031978;28;19932;-69
2021/03/16 01:03:52;;;;;;;28.92;5.07;;;;;;;;;;5031128;28;20385;-70
2021/03/16 01:06:19;;;;;;;;;;;11.00;57.60;;;;;;5031464;28;20033;-70
2021/03/16 01:08:46;;;;;;;21.70;4.80;;;;;;;;;;5031342;28;19967;-69
2021/03/16 01:11:12;;;;;;;;;;;11.30;56.90;;;;;;5031885;28;20083;-70
2021/03/16 01:13:39;;;;;;;;;;;11.30;57.90;;;;;;5030858;28;19951;-70
2021/03/16 01:16:05;;;;;;;;;;;11.10;57.10;;;;;;5030309;28;19925;-70
2021/03/16 01:18:33;;;;;;;23.38;5.63;;;;;;;;;;5030474;28;20421;-71
2021/03/16 01:21:00;;;;;;;25.00;4.50;;;;;;;;;;5030602;28;20068;-71
2021/03/16 01:23:27;;;;;;;23.20;4.43;;;;;;;;;;5030043;28;20045;-70
2021/03/16 01:26:04;;;;;;;16.80;4.32;;;11.10;56.20;;;;;;5031509;28;20492;-70
2021/03/16 01:28:31;;;;;;;22.60;5.05;;;;;;;;;;5030442;28;20099;-69
2021/03/16 01:31:00;;;;;;;30.95;4.68;;;11.20;56.20;;;;;;5030386;28;20049;-70
2021/03/16 01:33:28;;;;;;;26.58;5.20;;;;;;;;;;5030641;28;20049;-70
2021/03/16 01:35:55;;;;;;;;;;;11.30;56.40;;;;;;5031122;28;20050;-70
2021/03/16 01:38:22;;;;;;;19.00;4.50;;;;;;;;;;5031119;28;19921;-69
2021/03/16 01:40:49;;;;;;;16.92;4.82;;;;;;;;;;5034847;28;20091;-69
2021/03/16 01:43:24;;;;;;;;;;;11.40;56.00;;;;;;5034622;28;20141;-71
2021/03/16 01:45:51;;;;;;;20.27;4.75;;;11.00;57.10;;;;;;5034646;28;19960;-70
2021/03/16 01:48:25;;;;;;;20.42;4.60;;;10.90;57.60;;;;;;5017366;28;20045;-70
2021/03/16 01:50:52;;;;;;;28.17;5.78;;;;;;;;;;5034219;28;20558;-70
2021/03/16 01:53:20;;;;;;;22.13;4.97;;;11.00;58.00;;;;;;5034390;28;20318;-69
2021/03/16 01:55:49;;;;;;;24.35;5.03;;;11.00;58.10;;;;;;5033005;28;20099;-69
2021/03/16 01:58:17;;;;;;;29.42;5.65;;;;;;;;;;5033321;28;20049;-69
2021/03/16 02:01:02;;;;;;;24.48;5.68;;;;;;;;;;5034580;28;20496;-70
2021/03/16 02:03:48;;;;;;;22.98;5.07;;;;;;;;;;5034527;28;20409;-72
2021/03/16 02:06:46;;;;;;;31.13;5.78;;;11.10;58.50;;;;;;5033695;28;20057;-70
2021/03/16 02:10:07;;;;;;;25.88;5.63;;;11.20;58.80;;;;;;5034049;28;20081;-71
2021/03/16 02:13:10;;;;;;;28.58;6.35;;;11.20;58.60;;;;;;5034060;28;20405;-69
2021/03/16 02:16:03;;;;;;;24.13;4.75;;;11.20;58.70;;;;;;5033449;28;20037;-70
2021/03/16 02:18:51;;;;;;;31.95;6.75;;;11.20;58.70;;;;;;5032547;28;20400;-70
2021/03/16 02:21:38;;;;;;;24.42;5.60;;;11.20;58.70;;;;;;5033944;28;20069;-70
2021/03/16 02:24:48;;;;;;;28.42;6.13;;;11.10;58.90;;;;;;5033867;28;20057;-69
2021/03/16 02:28:10;;;;;;;24.40;5.80;;;11.10;59.10;;;;;;5034387;28;20048;-69
2021/03/16 02:30:56;;;;;;;28.75;5.15;;;;;;;;;;5033890;28;20076;-70
2021/03/16 02:33:43;;;;;;;25.88;5.97;;;11.00;59.30;;;;;;5033218;28;20038;-69
2021/03/16 02:36:29;;;;;;;25.30;5.28;;;;;;;;;;5033683;28;20451;-70
2021/03/16 02:39:16;;;;;;;26.67;5.30;;;11.00;59.10;;;;;;5033544;28;20077;-71
2021/03/16 02:42:04;;;;;;;33.10;5.78;;;10.80;59.60;;;;;;5033553;28;20303;-70
2021/03/16 02:44:51;;;;;;;27.02;6.57;;;10.80;59.90;;;;;;5033675;28;20056;-70
2021/03/16 02:47:40;;;;;;;36.97;5.82;;;10.70;60.30;;;;;;5033277;28;20048;-70
2021/03/16 02:50:26;;;;;;;25.75;4.72;;;;;;;;;;5032985;28;20045;-68
2021/03/16 02:53:15;;;;;;;36.03;5.72;;;10.80;60.10;;;;;;5033678;28;20056;-71
2021/03/16 02:56:01;;;;;;;27.63;5.22;;;;;;;;;;5033600;28;20518;-68
2021/03/16 02:58:48;;;;;;;35.73;5.70;;;10.80;60.40;;;;;;5032069;28;20042;-68
2021/03/16 03:01:36;;;;;;;29.30;5.93;;;10.80;60.40;;;;;;5032665;28;20296;-70
2021/03/16 03:04:22;;;;;;;22.88;5.82;;;;;;;;;;5032764;28;20033;-69
2021/03/16 03:07:11;;;;;;;25.88;6.50;;;10.80;60.50;;;;;;5033104;28;20436;-69
2021/03/16 03:09:57;;;;;;;34.08;6.90;;;;;;;;;;5032023;28;20183;-70
2021/03/16 03:12:42;;;;;;;33.23;6.17;;;;;;;;;;5032963;28;20049;-69
2021/03/16 03:15:28;;;;;;;23.23;5.03;;;;;;;;;;5031793;28;20049;-69
2021/03/16 03:18:14;;;;;;;32.33;6.10;;;;;;;;;;5019668;28;20526;-68
2021/03/16 03:21:11;;;;;;;27.45;5.50;;;11.00;59.70;;;;;;5033008;28;20045;-69
2021/03/16 03:24:03;;;;;;;28.48;6.25;;;11.00;60.00;;;;;;5032624;28;20041;-69
2021/03/16 03:26:48;;;;;;;36.78;6.07;;;;;;;;;;5033118;28;20480;-69
2021/03/16 03:29:35;;;;;;;36.17;5.82;;;10.90;59.60;;;;;;5032634;28;20054;-71
2021/03/16 03:32:24;;;;;;;27.58;6.70;;;11.00;59.70;;;;;;5030925;28;20049;-69
2021/03/16 03:35:10;;;;;;;27.63;6.35;;;;;;;;;;5032664;28;20045;-71
2021/03/16 03:37:56;;;;;;;20.58;4.75;;;;;;;;;;5031848;28;20041;-68
2021/03/16 03:40:43;;;;;;;29.90;5.32;;;11.00;59.50;;;;;;5032856;28;20496;-68
2021/03/16 03:43:32;;;;;;;27.80;5.55;;;11.00;59.30;;;;;;5031449;28;20057;-67
2021/03/16 03:46:19;;;;;;;31.02;5.15;;;11.10;59.20;;;;;;5016914;28;20401;-69
2021/03/16 03:49:05;;;;;;;29.35;5.28;;;11.20;59.00;;;;;;5031220;28;20072;-68
2021/03/16 03:51:51;;;;;;;16.55;4.93;;;;;;;;;;5032677;28;20045;-69
2021/03/16 03:54:37;;;;;;;25.48;6.10;;;;;;;;;;5033262;28;20072;-68
2021/03/16 03:57:24;;;;;;;25.05;5.05;;;11.20;58.90;;;;;;5032827;28;20591;-69
2021/03/16 04:00:14;;;;;;;23.92;4.72;;;11.20;58.90;;;;;;5033152;28;20122;-70
2021/03/16 04:03:00;;;;;;;31.20;5.15;;;;;;;;;;5033502;28;20041;-70
2021/03/16 04:05:50;;;;;;;23.92;5.07;;;11.20;58.80;;;;;;5032533;28;20048;-69
2021/03/16 04:08:37;;;;;;;21.10;5.03;;;11.20;59.10;;;;;;5032984;28;20083;-69
2021/03/16 04:11:23;;;;;;;32.58;5.65;;;;;;;;;;5017510;28;20053;-67
2021/03/16 04:14:09;;;;;;;28.27;4.82;;;;;;;;;;5032690;28;20411;-68
2021/03/16 04:16:55;;;;;;;34.42;6.18;;;11.40;58.50;;;;;;5031769;28;20095;-70
2021/03/16 04:19:41;;;;;;;30.00;5.63;;;;;;;;;;5034237;28;20057;-70
2021/03/16 04:22:27;;;;;;;26.05;5.00;;;;;;;;;;5035613;28;20156;-70
2021/03/16 04:25:13;;;;;;;25.15;4.85;;;;;;;;;;5036502;28;20052;-70
2021/03/16 04:27:59;;;;;;;36.10;8.88;;;;;;;;;;5023063;28;20050;-69
2021/03/16 04:30:45;;;;;;;22.77;4.50;;;;;;;;;;5023501;28;20487;-70
2021/03/16 04:33:30;;;;;;;27.73;5.28;;;;;;;;;;5028517;28;20041;-69
2021/03/16 04:36:16;;;;;;;23.40;5.15;;;;;;;;;;5033021;28;20049;-70
2021/03/16 04:39:01;;;;;;;25.52;5.18;;;;;;;;;;5031662;28;20045;-69
2021/03/16 04:41:47;;;;;;;25.57;5.43;;;;;;;;;;5031501;28;20046;-70
2021/03/16 04:44:33;;;;;;;21.38;5.07;;;;;;;;;;5019330;28;20292;-70
2021/03/16 04:47:18;;;;;;;22.17;5.80;;;;;;;;;;5032048;28;20049;-69
2021/03/16 04:50:05;;;;;;;26.33;4.78;;;;;;;;;;5031927;28;20052;-72
2021/03/16 04:52:52;;;;;;;21.15;5.35;;;;;;;;;;5030271;28;20057;-70
2021/03/16 04:55:37;;;;;;;25.55;5.90;;;;;;;;;;5030298;28;20072;-69
2021/03/16 04:58:23;;;;;;;36.67;5.70;;;;;;;;;;5031033;28;20033;-69
2021/03/16 05:01:08;;;;;;;27.30;5.53;;;;;;;;;;5031500;28;20281;-70
2021/03/16 05:03:54;;;;;;;26.75;5.03;;;;;;;;;;5030912;28;20051;-71
2021/03/16 05:06:40;;;;;;;35.05;6.55;;;;;;;;;;5029905;28;20041;-70
2021/03/16 05:09:25;;;;;;;19.42;5.22;;;;;;;;;;5015812;28;20049;-70
2021/03/16 05:12:11;;;;;;;26.00;5.30;;;;;;;;;;5031523;28;20045;-70
2021/03/16 05:14:57;;;;;;;30.20;5.70;;;;;;;;;;5035067;28;20119;-68
2021/03/16 05:17:42;;;;;;;33.03;5.78;;;;;;;;;;5035599;28;20049;-69
2021/03/16 05:20:29;;;;;;;33.28;5.93;;;;;;;;;;5035406;28;20033;-68
2021/03/16 05:23:15;;;;;;;35.85;5.40;;;;;;;;;;5034884;28;20711;-67
2021/03/16 05:26:00;;;;;;;26.65;6.90;;;;;;;;;;5035285;28;20160;-71
2021/03/16 05:28:46;;;;;;;29.38;8.00;;;;;;;;;;5034685;28;20411;-69
2021/03/16 05:31:32;;;;;;;27.42;5.72;;;;;;;;;;5034963;28;20045;-69
2021/03/16 05:34:18;;;;;;;31.35;5.85;;;;;;;;;;5033627;28;20061;-70
2021/03/16 05:37:04;;;;;;;34.67;6.38;;;;;;;;;;4338251;28;10001075;-71
2021/03/16 05:39:49;;;;;;;23.10;5.13;;;;;;;;;;5032405;28;20050;-68
2021/03/16 05:42:35;;;;;;;40.72;7.57;;;;;;;;;;5031852;28;20053;-69
2021/03/16 05:45:21;;;;;;;39.50;5.88;;;;;;;;;;5031042;28;20068;-69
2021/03/16 05:48:10;;;;;;;37.53;6.63;;;11.20;59.70;;;;;;5032045;28;20057;-71
2021/03/16 05:50:59;;;;;;;35.78;5.97;;;11.20;59.90;;;;;;5032491;28;20048;-68
2021/03/16 05:53:48;;;;;;;38.08;7.03;;;11.20;60.00;;;;;;5032208;28;20050;-68
2021/03/16 05:56:34;;;;;;;39.22;7.45;;;;;;;;;;5032068;28;20057;-69
2021/03/16 05:59:40;;;;;;;29.05;6.68;;;;;;;;;;5032139;28;20508;-70
2021/03/16 06:02:26;;;;;;;25.35;4.90;;;;;;;;;;5030832;28;20052;-71
2021/03/16 06:05:12;;;;;;;25.13;6.05;;;11.10;60.50;;;;;;5032396;28;20037;-70
2021/03/16 06:07:58;;;;;;;33.92;6.95;;;;;;;;;;5031929;28;20049;-69
2021/03/16 06:10:44;;;;;;;31.77;6.13;;;11.10;60.80;;;;;;5031538;28;20084;-70
2021/03/16 06:13:30;;;;;;;40.67;7.43;;;;;;;;;;5018705;28;20045;-71
2021/03/16 06:16:16;;;;;;;29.60;5.57;;;;;;;;;;5032039;28;20091;-69
2021/03/16 06:19:07;;;;;;;30.13;5.82;;;;;;;;;;5032044;28;20045;-69
2021/03/16 06:22:06;;;;;;;28.45;5.47;;;11.00;61.40;;;;;;5032287;28;20033;-69
2021/03/16 06:24:52;;;;;;;23.35;5.18;;;;;;;;;;5032659;28;20057;-71
2021/03/16 06:27:38;;;;;;;28.77;5.50;;;;;;;;;;5032426;28;20053;-71
2021/03/16 06:30:26;;;;;;;31.88;7.28;;;11.00;61.70;;;;;;5033483;28;20045;-69
2021/03/16 06:33:22;;;;;;;37.25;6.25;;;11.00;61.70;;;;;;5033253;28;20053;-70
2021/03/16 06:36:08;;;;;;;39.80;6.03;;;11.00;61.80;;;;;;5030453;28;20092;-70
2021/03/16 06:38:54;;;;;;;37.95;6.32;;;11.00;61.90;;;;;;5026444;28;20045;-69
2021/03/16 06:41:40;;;;;;;34.33;6.45;;;;;;;;;;5032269;28;20053;-71
2021/03/16 06:44:25;;;;;;;25.48;5.57;;;;;;;;;;5033254;28;20396;-72
2021/03/16 06:47:15;;;;;;;27.55;6.47;;;11.00;62.10;;;;;;5033211;28;20109;-68
2021/03/16 06:50:00;;;;;;;28.23;6.07;;;;;;;;;;5025440;28;20060;-69
2021/03/16 06:52:49;;;;;;;23.45;5.35;;;11.10;62.10;;;;;;5022649;28;20151;-69
2021/03/16 06:55:35;;;;;;;35.00;6.18;;;;;;;;;;5021086;28;20057;-70
2021/03/16 06:58:30;;;;;;;30.13;6.50;;;11.10;61.60;;;;;;5032049;28;20127;-69
2021/03/16 07:01:20;;;;;;;35.50;7.18;;;;;;;;;;5024837;28;20045;-71
2021/03/16 07:04:16;;;;;;;32.63;5.43;;;11.30;61.50;;;;;;5031798;28;20061;-69
2021/03/16 07:07:02;;;;;;;30.92;8.48;;;;;;;;;;5025708;28;20490;-69
2021/03/16 07:09:48;;;;;;;32.65;5.55;;;;;;;;;;5031429;28;20045;-71
2021/03/16 07:12:35;;;;;;;25.17;6.05;;;11.50;60.60;;;;;;5031380;28;20119;-70
2021/03/16 07:15:22;;;;;;;28.27;5.60;;;;;;;;;;5030268;28;20060;-71
2021/03/16 07:18:10;;;;;;;39.88;8.30;;;11.40;60.90;;;;;;5032208;28;20499;-70
2021/03/16 07:20:57;;;;;;;36.22;5.75;;;11.30;61.40;;;;;;5030721;28;20049;-70
2021/03/16 07:23:48;;;;;;;25.30;5.72;;;11.40;61.30;;;;;;5019352;28;20045;-70
2021/03/16 07:26:34;;;;;;;41.42;7.90;;;;;;;;;;5030361;28;20041;-71
2021/03/16 07:29:20;;;;;;;24.30;5.47;;;;;;;;;;5031692;28;20048;-67
2021/03/16 07:32:18;;;;;;;25.67;5.90;;;;;;;;;;5032007;28;20446;-70
2021/03/16 07:35:05;;;;;;;26.65;5.38;;;;;;;;;;5026894;28;20763;-74
2021/03/16 07:37:51;;;;;;;30.25;6.15;;;11.40;60.80;;;;;;5031140;28;20060;-71
2021/03/16 07:40:39;;;;;;;23.42;5.85;;;11.50;60.40;;;;;;5031262;28;20125;-71
2021/03/16 07:43:36;;;;;;;22.80;5.22;;;11.30;60.60;;;;;;5029559;28;20111;-71
2021/03/16 07:46:22;;;;;;;30.02;5.55;;;;;;;;;;5031248;28;20041;-70
2021/03/16 07:49:08;;;;;;;31.38;6.65;;;10.90;62.60;;;;;;5031153;28;20048;-70
2021/03/16 07:51:55;;;;;;;26.02;5.55;;;;;;;;;;5030567;28;20508;-71
2021/03/16 07:54:47;;;;;;;29.20;7.93;;;10.90;63.30;;;;;;5029721;28;20050;-70
2021/03/16 07:57:35;;;;;;;23.88;6.25;;;;;;;;;;5031252;28;20457;-72
2021/03/16 08:00:30;;;;;;;24.55;5.97;;;10.70;63.80;;;;;;5030160;28;20041;-71
2021/03/16 08:03:22;;;;;;;24.98;5.93;;;10.90;63.80;;;;;;5029819;28;20053;-71
2021/03/16 08:06:09;;;;;;;26.52;6.70;;;;;;;;;;5029685;28;20456;-73
2021/03/16 08:08:54;;;;;;;21.73;6.15;;;;;;;;;;5030926;28;20049;-71
2021/03/16 08:11:41;;;;;;;32.75;8.38;;;11.30;63.20;;;;;;5031201;28;20175;-74
2021/03/16 08:14:30;;;;;;;32.85;6.60;;;11.30;62.60;;;;;;5030569;28;20045;-72
2021/03/16 08:17:42;;;;;;;33.58;6.97;;;11.20;63.50;;;;;;5031337;28;20052;-72
2021/03/16 08:20:28;;;;;;;22.95;5.68;;;;;;;;;;5030107;28;20048;-69
2021/03/16 08:23:14;;;;;;;29.40;6.03;;;;;;;;;;5030310;28;20115;-72
2021/03/16 08:26:03;;;;;;;31.58;6.70;;;11.30;63.10;;;;;;5030975;28;20052;-71
2021/03/16 08:28:50;;;;;;;29.50;7.82;;;;;;;;;;5014812;28;20072;-70
2021/03/16 08:31:43;;;;;;;25.50;7.05;;;11.30;62.30;;;;;;5015961;28;20045;-72
2021/03/16 08:34:30;;;;;;;32.30;7.25;;;11.30;63.10;;;;;;5028592;28;20126;-72
2021/03/16 08:37:21;;;;;;;41.90;8.73;;;11.50;61.60;;;;;;5020208;28;20037;-72
2021/03/16 08:40:08;;;;;;;30.63;7.10;;;11.70;62.00;;;;;;5029918;28;20492;-72
2021/03/16 08:42:54;;;;;;;27.25;6.97;;;;;;;;;;5030660;28;20053;-69
2021/03/16 08:45:43;;;;;;;29.35;7.03;;;11.70;61.10;;;;;;5030610;28;20057;-70
2021/03/16 08:48:29;;;;;;;29.95;7.30;;;11.80;60.70;;;;;;5028485;28;20048;-70
2021/03/16 08:51:25;;;;;;;31.08;7.47;;;11.60;60.60;;;;;;5019434;28;20508;-71
2021/03/16 08:54:10;;;;;;;27.48;7.75;;;11.50;60.50;;;;;;5023794;28;20065;-71
2021/03/16 08:56:56;;;;;;;20.60;7.22;;;;;;;;;;5030087;28;20041;-72
2021/03/16 08:59:47;;;;;;;33.83;9.40;;;11.30;61.30;;;;;;5028813;28;20120;-71
2021/03/16 09:02:39;;;;;;;30.95;8.57;;;;;;;;;;5030636;28;20346;-71
2021/03/16 09:05:26;;;;;;;32.28;8.35;;;;;;;;;;5030350;28;20054;-72
2021/03/16 09:08:11;;;;;;;26.35;8.18;;;;;;;;;;5028648;28;20407;-71
2021/03/16 09:10:57;;;;;;;24.17;7.03;;;;;;;;;;5030643;28;20504;-72
2021/03/16 09:13:43;;;;;;;32.08;8.50;;;;;;;;;;5019884;28;20057;-72
2021/03/16 09:16:28;;;;;;;22.67;7.63;;;;;;;;;;5033456;28;20535;-70
2021/03/16 09:19:19;;;;;;;21.10;6.65;;;11.20;60.30;;;;;;5035073;28;20046;-72
2021/03/16 09:22:10;;;;;;;20.92;7.22;;;;;;;;;;5033580;28;20049;-72
2021/03/16 09:24:56;;;;;;;27.67;7.03;;;;;;;;;;5025358;28;20045;-73
2021/03/16 09:27:42;;;;;;;21.05;6.47;;;;;;;;;;5021178;28;20054;-72
2021/03/16 09:30:35;;;;;;;;;;;11.90;59.30;;;;;;5027522;28;20042;-73
2021/03/16 09:33:23;;;;;;;23.75;6.50;;;12.20;58.70;;;;;;5031267;28;19928;-72
2021/03/16 09:36:09;;;;;;;15.68;5.63;;;;;;;;;;5023001;28;20053;-71
2021/03/16 09:38:59;;;;;;;20.55;6.35;;;12.10;58.10;;;;;;5029492;28;20416;-70
2021/03/16 09:41:34;;;;;;;25.40;5.97;;;;;;;;;;5032482;28;20113;-73
2021/03/16 09:44:01;;;;;;;23.23;5.28;;;;;;;;;;5030304;28;20053;-69
2021/03/16 09:46:28;;;;;;;29.27;6.32;;;;;;;;;;5032632;28;20065;-69
2021/03/16 09:48:55;;;;;;;25.10;7.10;;;;;;;;;;5027918;28;20141;-70
2021/03/16 09:51:25;;;;;;;45.90;7.35;;;12.10;57.70;;;;;;5029796;28;20049;-72
2021/03/16 09:53:57;;;;;;;20.27;6.10;;;12.00;57.70;;;;;;5029554;28;20046;-71
2021/03/16 09:56:29;;;;;;;33.13;6.05;;;12.20;58.60;;;;;;5030120;28;20041;-71
2021/03/16 09:59:01;;;;;;;23.40;5.80;;;12.20;57.10;;;;;;5029091;28;20060;-72
2021/03/16 10:01:29;;;;;;;28.25;5.55;;;;;;;;;;5033985;28;20045;-73
2021/03/16 10:04:01;;;;;;;27.40;5.35;;;12.30;57.40;;;;;;5031493;28;20042;-70
2021/03/16 10:06:38;;;;;;;24.17;5.53;;;12.40;57.10;;;;;;5033517;28;20130;-71
2021/03/16 10:09:26;;;;;;;11.90;4.22;;;12.20;55.80;;;;;;5033236;28;20041;-72
2021/03/16 10:11:53;;;;;;;17.38;5.20;;;;;;;;;;5021084;28;20037;-71
2021/03/16 10:14:27;;;;;;;15.18;4.22;;;11.90;57.80;;;;;;5033828;28;20045;-72
2021/03/16 10:16:55;;;;;;;19.45;4.30;;;11.90;57.90;;;;;;5033002;28;20073;-73
2021/03/16 10:19:23;;;;;;;23.08;5.95;;;12.00;58.00;;;;;;5031174;28;20514;-71
2021/03/16 10:21:50;;;;;;;25.65;6.78;;;;;;;;;;5031981;28;20060;-70
2021/03/16 10:24:25;;;;;;;19.50;4.75;;;11.90;58.70;;;;;;5031906;28;20120;-71
2021/03/16 10:27:00;;;;;;;15.18;4.22;;;11.80;57.60;;;;;;5032257;28;20057;-72
2021/03/16 10:29:27;;;;;;;21.20;4.70;;;;;;;;;;5021248;28;20049;-72
2021/03/16 10:31:54;;;;;;;24.92;4.80;;;;;;;;;;5030233;28;20083;-71
2021/03/16 10:34:21;;;;;;;19.05;4.97;;;;;;;;;;5028570;28;20083;-72
2021/03/16 10:36:48;;;;;;;;;;;11.50;59.70;;;;;;5031565;28;20038;-71
2021/03/16 10:39:15;;;;;;;6.88;3.20;;;;;;;;;;5032282;28;19967;-72
2021/03/16 10:41:42;;;;;;;15.32;4.00;;;;;;;;;;5030806;28;20061;-70
2021/03/16 10:44:14;;;;;;;10.50;3.97;;;;;;;;;;5031830;28;20538;-71
2021/03/16 10:46:41;;;;;;;;;;;10.60;60.40;;;;;;5032728;28;20037;-72
2021/03/16 10:49:08;;;;;;;13.15;4.30;;;;;;;;;;5032046;28;19921;-71
2021/03/16 10:51:35;;;;;;;8.60;4.70;;;;;;;;;;5032280;28;20045;-71
2021/03/16 10:54:02;;;;;;;10.77;3.92;;;;;;;;;;5032466;28;20042;-71
2021/03/16 10:56:29;;;;;;;;;;;10.60;61.50;;;;;;5032260;28;20041;-74
2021/03/16 10:58:55;;;;;;;;;;;10.60;61.80;;;;;;5029237;28;19925;-72
2021/03/16 11:01:22;;;;;;;9.98;3.55;;;;;;;;;;5032291;28;19998;-71
2021/03/16 11:03:49;;;;;;;9.63;3.70;;;;;;;;;;5031888;28;20056;-70
2021/03/16 11:06:17;;;;;;;15.73;4.32;;;;;;;;;;5030842;28;20049;-72
2021/03/16 11:08:44;;;;;;;9.77;3.97;;;;;;;;;;5033372;28;20149;-70
2021/03/16 11:11:11;;;;;;;;;;;10.90;60.80;;;;;;5035130;28;20134;-69
2021/03/16 11:13:37;;;;;;;;;;;10.90;61.70;;;;;;5015065;28;19921;-72
2021/03/16 11:16:04;;;;;;;;;;;11.10;62.10;;;;;;5014915;28;19921;-70
2021/03/16 11:18:31;;;;;;;15.48;4.28;;;;;;;;;;5032599;28;19927;-70
2021/03/16 11:20:59;;;;;;;12.93;4.32;;;;;;;;;;5031439;28;20068;-70
2021/03/16 11:23:26;;;;;;;19.50;3.45;;;;;;;;;;4336259;28;10021440;-71
2021/03/16 11:25:53;;;;;;;13.95;4.53;;;;;;;;;;5035222;28;20587;-71
2021/03/16 11:28:20;;;;;;;14.15;4.78;;;;;;;;;;5009233;28;20049;-69
2021/03/16 11:30:47;;;;;;;;;;;11.30;61.60;;;;;;5028490;28;20462;-70
2021/03/16 11:33:14;;;;;;;12.35;4.40;;;;;;;;;;5029282;28;19925;-71
2021/03/16 11:36:00;;;;;;;14.68;4.53;;;;;;;;;;5029759;28;20053;-73
2021/03/16 11:38:47;;;;;;;14.15;4.72;;;;;;;;;;5028434;28;20510;-69
2021/03/16 11:41:32;;;;;;;10.85;4.22;;;;;;;;;;5029635;28;20049;-70
2021/03/16 11:44:18;;;;;;;13.02;4.70;;;;;;;;;;5021871;28;20057;-72
2021/03/16 11:47:24;;;;;;;14.73;4.55;;;;;;;;;;5016714;28;20045;-71
2021/03/16 11:50:10;;;;;;;12.32;3.92;;;;;;;;;;5027822;28;20426;-70
2021/03/16 11:52:56;;;;;;;10.18;4.10;;;;;;;;;;5029506;28;20045;-72
2021/03/16 11:55:42;;;;;;;11.57;3.83;;;;;;;;;;5026153;28;20510;-72
2021/03/16 11:58:27;;;;;;;14.23;4.55;;;;;;;;;;5028313;28;20349;-72
2021/03/16 12:01:13;;;;;;;14.20;4.78;;;;;;;;;;5020877;28;20052;-71
2021/03/16 12:03:59;;;;;;;7.85;3.70;;;;;;;;;;5028256;28;20050;-70
2021/03/16 12:06:46;;;;;;;9.95;3.60;;;;;;;;;;4997923;28;20049;-71
2021/03/16 12:09:32;;;;;;;12.60;4.55;;;;;;;;;;5027892;28;20037;-70
2021/03/16 12:12:17;;;;;;;11.60;3.90;;;;;;;;;;5013800;28;20080;-71
2021/03/16 12:15:11;;;;;;;8.63;3.90;;;11.30;60.70;;;;;;5029120;28;20090;-71
2021/03/16 12:17:57;;;;;;;9.45;3.88;;;;;;;;;;4998248;28;20060;-69
2021/03/16 12:20:43;;;;;;;10.10;3.50;;;;;;;;;;5029057;28;20061;-71
2021/03/16 12:23:28;;;;;;;;;;;11.30;60.00;;;;;;5030578;28;20080;-73
2021/03/16 12:26:16;;;;;;;8.68;3.65;;;11.50;60.20;;;;;;5029809;28;19925;-72
2021/03/16 12:29:02;;;;;;;10.07;3.97;;;;;;;;;;5029521;28;20040;-71
2021/03/16 12:31:48;;;;;;;8.48;3.38;;;;;;;;;;5027852;28;20073;-71
2021/03/16 12:34:42;;;;;;;12.25;3.60;;;;;;;;;;5029053;28;20452;-74
2021/03/16 12:37:28;;;;;;;6.63;3.33;;;;;;;;;;5027881;28;20044;-70
2021/03/16 12:40:14;;;;;;;10.83;3.60;;;;;;;;;;5027062;28;20056;-72
2021/03/16 12:43:00;;;;;;;6.63;3.35;;;;;;;;;;5019335;28;20602;-71
2021/03/16 12:45:46;;;;;;;9.43;4.00;;;;;;;;;;5027566;28;20072;-71
2021/03/16 12:48:31;;;;;;;9.55;3.75;;;;;;;;;;5028129;28;20037;-71
2021/03/16 12:51:17;;;;;;;5.85;3.08;;;;;;;;;;5028535;28;20045;-71
2021/03/16 12:54:03;;;;;;;10.13;3.53;;;11.90;56.70;;;;;;5029180;28;20038;-70
2021/03/16 12:57:02;;;;;;;5.45;2.88;;;;;;;;;;5009333;28;20054;-71
2021/03/16 12:59:47;;;;;;;8.27;3.30;;;;;;;;;;5025593;28;20096;-72
2021/03/16 13:02:34;;;;;;;6.00;3.05;;;;;;;;;;5009449;28;20125;-72
2021/03/16 13:05:24;;;;;;;11.48;3.60;;;;;;;;;;5012494;28;20053;-70
2021/03/16 13:08:10;;;;;;;10.83;4.33;;;;;;;;;;5028609;28;20057;-72
2021/03/16 13:10:55;;;;;;;6.47;3.30;;;;;;;;;;5022962;28;20060;-71
2021/03/16 13:13:41;;;;;;;11.43;3.78;;;;;;;;;;5029868;28;20067;-70
2021/03/16 13:16:27;;;;;;;8.10;3.30;;;;;;;;;;5050486;28;20384;-72
2021/03/16 13:19:13;;;;;;;7.50;3.58;;;;;;;;;;5036856;28;20048;-71
2021/03/16 13:21:59;;;;;;;6.88;3.22;;;;;;;;;;5050754;28;20048;-71
2021/03/16 13:24:45;;;;;;;6.30;3.45;;;;;;;;;;5018581;28;20048;-71
2021/03/16 13:27:30;;;;;;;12.50;3.77;;;;;;;;;;5049889;28;20075;-73
2021/03/16 13:30:17;;;;;;;5.85;3.50;;;11.60;59.50;;;;;;5035809;28;20158;-72
2021/03/16 13:33:02;;;;;;;12.45;4.00;;;;;;;;;;5033498;28;20041;-72
2021/03/16 13:35:54;;;;;;;10.95;4.18;;;11.90;58.70;;;;;;5042654;28;20048;-71
2021/03/16 13:38:47;;;;;;;8.10;3.88;;;;;;;;;;5052612;28;20044;-71
2021/03/16 13:41:33;;;;;;;10.70;3.55;;;;;;;;;;5051431;28;20067;-73
2021/03/16 13:44:19;;;;;;;10.80;3.83;;;;;;;;;;5030288;28;20076;-72
2021/03/16 13:47:05;;;;;;;5.45;3.40;;;;;;;;;;5069709;28;20060;-74
2021/03/16 13:49:51;;;;;;;12.80;4.10;;;;;;;;;;5071580;28;20175;-72
2021/03/16 13:52:36;;;;;;;8.00;3.70;;;;;;;;;;5056925;28;20081;-72
2021/03/16 13:55:22;;;;;;;11.88;4.13;;;;;;;;;;5070806;28;20129;-71
2021/03/16 13:58:08;;;;;;;10.23;3.85;;;;;;;;;;5056773;28;20660;-71
2021/03/16 14:00:54;;;;;;;7.57;3.85;;;;;;;;;;5070796;28;20037;-73
2021/03/16 14:03:40;;;;;;;8.85;4.25;;;;;;;;;;5053992;28;20052;-70
2021/03/16 14:06:30;;;;;;;14.00;4.45;;;12.10;59.30;;;;;;5039517;28;20052;-71
2021/03/16 14:09:16;;;;;;;9.63;4.57;;;;;;;;;;5070682;28;20163;-71
2021/03/16 14:12:02;;;;;;;9.20;4.63;;;;;;;;;;5071297;28;20661;-71
2021/03/16 14:14:49;;;;;;;7.27;4.30;;;;;;;;;;5039737;28;20060;-70
2021/03/16 14:17:35;;;;;;;11.73;4.97;;;;;;;;;;5049494;28;20045;-72
2021/03/16 14:20:21;;;;;;;13.77;4.85;;;;;;;;;;5042901;28;20049;-72
2021/03/16 14:23:06;;;;;;;12.20;5.03;;;;;;;;;;5071104;28;20163;-71
2021/03/16 14:25:52;;;;;;;14.25;4.97;;;;;;;;;;5052751;28;20067;-70
2021/03/16 14:28:38;;;;;;;13.60;4.93;;;;;;;;;;5071079;28;20071;-70
2021/03/16 14:31:24;;;;;;;7.05;4.30;;;;;;;;;;5056122;28;20049;-71
2021/03/16 14:34:10;;;;;;;8.75;4.60;;;;;;;;;;5055792;28;20513;-73
2021/03/16 14:36:55;;;;;;;9.77;4.45;;;;;;;;;;5073530;28;20039;-73
2021/03/16 14:39:41;;;;;;;11.23;5.15;;;;;;;;;;5070554;28;20040;-70
2021/03/16 14:42:28;;;;;;;9.05;4.13;;;;;;;;;;5063427;28;20434;-70
2021/03/16 14:45:14;;;;;;;8.20;5.30;;;;;;;;;;5070362;28;20139;-71
2021/03/16 14:48:00;;;;;;;8.32;4.40;;;;;;;;;;5070673;28;20498;-69
2021/03/16 14:50:45;;;;;;;9.70;4.85;;;;;;;;;;5052406;28;20044;-71
2021/03/16 14:53:31;;;;;;;9.20;5.28;;;;;;;;;;5073480;28;20040;-69
2021/03/16 14:56:17;;;;;;;8.68;6.00;;;;;;;;;;5074922;28;20052;-70
2021/03/16 14:59:03;;;;;;;14.82;6.80;;;;;;;;;;5074362;28;20198;-70
2021/03/16 15:01:48;;;;;;;13.60;6.10;;;;;;;;;;5072814;28;20048;-71
2021/03/16 15:04:35;;;;;;;10.13;5.78;;;;;;;;;;5062727;28;20036;-69
2021/03/16 15:07:22;;;;;;;12.65;6.68;;;;;;;;;;5071330;28;20048;-70
2021/03/16 15:10:08;;;;;;;11.02;6.78;;;12.70;56.50;;;;;;5056357;28;20055;-71
2021/03/16 15:12:55;;;;;;;12.52;6.75;;;;;;;;;;5072751;28;20115;-70
2021/03/16 15:15:40;;;;;;;14.07;7.40;;;;;;;;;;5064388;28;20044;-70
2021/03/16 15:18:26;;;;;;;12.77;7.78;;;;;;;;;;5062556;28;20025;-71
2021/03/16 15:21:13;;;;;;;11.63;7.13;;;12.50;57.20;;;;;;5052075;28;20041;-69